Rome, OR

11:01 AM MDT on August 29, 2014 (GMT -0600)
RAWS GRASSY MOUNTAIN OR US | Change Station
CLOSE
Current Station
Personal Weather Station
Location: Jordan Valley, OR
Elevation: 4560 ft
Nearby Weather Stations

Elev 4560 ft 42.63 °N, 117.40 °W | Updated 37 minutes ago

Clear
Clear
72 °F
Feels Like 76 °F
N
2
Wind Variable Wind from South
Gusts 6.0 mph

Today
High -- | Low -- °F
--% Chance of Precip.
Yesterday
High -- | Low -- °F
Precip. -- in
7:11 AM 8:28 PM
Waxing Crescent, 15% visible
Pressure 29.93 in
Visibility 10.0 miles
Clouds Clear
Heat Index 76 °F
Dew Point 40 °F
Humidity 31%
Rainfall 0.00 in
Snow Depth Not available.
UV 5 out of 12
Pollen 6.00 out of 12
Air Quality Not available.
Flu Activity Not available.
METAR KMUO 291658Z AUTO 01003KT 10SM CLR 23/04 A3000 RMK AO2 SLP135 T02260044

More Conditions Fewer Conditions

Pressure 29.93 in
Visibility 10.0 miles
Clouds Clear
Heat Index 76 °F
Dew Point 40 °F
Humidity 31%
Rainfall 0.00 in
Snow Depth Not available.
UV 5 out of 12
Pollen 6.00 out of 12
Air Quality Not available.
Flu Activity Not available.
METAR KMUO 291658Z AUTO 01003KT 10SM CLR 23/04 A3000 RMK AO2 SLP135 T02260044

More Conditions Fewer Conditions

10-Day Weather Forecast

Almanac

Astronomy

Aug. 29, 2014 Rise Set
Actual Time 7:11 AM MDT 8:28 PM MDT
Civil Twilight 6:42 AM MDT 8:58 PM MDT
Nautical Twilight 6:06 AM MDT 9:33 PM MDT
Astronomical Twilight 5:29 AM MDT 10:10 PM MDT
Moon 11:11 AM MDT 10:22 PM MDT
Length of Visible Light 14h 16m
Length of Day
13h 17m
Tomorrow will be 2m 46s shorter.
Waxing Crescent, 15% of the Moon is Illuminated
Today
Waxing Crescent
Sep 2
First Quarter
Sep 8
Full
Sep 15
Last Quarter
Sep 24
New

Today's Extremes

State Highs State Lows

Community

WunderPhotos

Upload Photos

1,748,297 photos uploaded!

Nearby

Snow Depth

Station Depth Elevation
Fish Creek 0 in 7900 ft
Rock Springs 0 in 5550 ft
Blue Mountain Spring 0 in 5900 ft
Snow Mountain 0 in 6220 ft
Tipton 0 in 5150 ft

Earthquake Activity

City Distance Mag. Time & Date
No recent earthquake activity has been reported nearby.
Minimum magnitude displayed is 2.5.

Coastal Water Temperatures

Place Temperature
No Stations Reporting

Nearby Weather Stations